createdAt,value
2024-03-05T00:01:35.495Z,45.20
2024-03-05T00:04:02.713Z,50.45
2024-03-05T00:06:30.871Z,43.60
2024-03-05T00:08:57.966Z,46.95
2024-03-05T00:11:25.118Z,50.72
2024-03-05T00:13:53.747Z,45.53
2024-03-05T00:16:20.777Z,45.38
2024-03-05T00:18:47.756Z,48.13
2024-03-05T00:21:14.825Z,46.75
2024-03-05T00:23:41.804Z,46.00
2024-03-05T00:26:09.435Z,50.30
2024-03-05T00:28:36.464Z,49.35
2024-03-05T00:31:04.219Z,50.08
2024-03-05T00:33:31.169Z,50.72
2024-03-05T00:35:58.118Z,50.67
2024-03-05T00:38:32.948Z,53.63
2024-03-05T00:41:01.756Z,54.72
2024-03-05T00:43:28.805Z,54.15
2024-03-05T00:45:55.746Z,54.03
2024-03-05T00:48:22.856Z,57.03
2024-03-05T00:50:49.808Z,57.10
2024-03-05T00:53:16.838Z,59.88
2024-03-05T00:55:43.834Z,60.92
2024-03-05T00:58:11.277Z,61.67
2024-03-05T01:00:38.366Z,61.92
2024-03-05T01:03:05.971Z,61.55
2024-03-05T01:05:32.890Z,61.05
2024-03-05T01:08:00.186Z,63.83
2024-03-05T01:10:27.325Z,62.20
2024-03-05T01:12:54.492Z,61.47
2024-03-05T01:15:21.803Z,60.13
2024-03-05T01:17:48.826Z,61.20
2024-03-05T01:20:19.535Z,66.43
2024-03-05T01:22:48.263Z,65.97
2024-03-05T01:25:15.541Z,69.93
2024-03-05T01:27:42.608Z,67.35
2024-03-05T01:30:14.872Z,66.40
2024-03-05T01:32:42.616Z,68.25
2024-03-05T01:35:11.707Z,67.40
2024-03-05T01:37:39.225Z,68.30
2024-03-05T01:40:07.324Z,70.47
2024-03-05T01:42:34.640Z,69.85
2024-03-05T01:45:01.642Z,66.05
2024-03-05T01:47:29.674Z,70.18
2024-03-05T01:49:57.240Z,72.10
2024-03-05T01:52:24.790Z,68.82
2024-03-05T01:54:55.410Z,70.10
2024-03-05T01:57:25.655Z,73.18
2024-03-05T01:59:52.713Z,71.32
2024-03-05T02:02:19.649Z,70.85
2024-03-05T02:04:47.110Z,65.60
2024-03-05T02:07:14.342Z,64.47
2024-03-05T02:09:42.487Z,68.35
2024-03-05T02:12:09.599Z,71.50
2024-03-05T02:14:36.822Z,67.00
2024-03-05T02:17:03.956Z,68.38
2024-03-05T02:19:31.086Z,70.28
2024-03-05T02:22:05.180Z,72.20
2024-03-05T02:24:35.260Z,71.13
2024-03-05T02:27:03.781Z,77.07
2024-03-05T02:29:32.552Z,74.07
2024-03-05T02:31:59.812Z,74.72
2024-03-05T02:34:27.356Z,73.07
2024-03-05T02:36:54.366Z,74.15
2024-03-05T02:39:21.418Z,80.20
2024-03-05T02:41:48.368Z,80.00
2024-03-05T02:44:15.451Z,72.95
2024-03-05T02:46:42.408Z,82.60
2024-03-05T02:49:10.100Z,80.70
2024-03-05T02:51:37.172Z,86.55
2024-03-05T02:54:04.371Z,85.40
2024-03-05T02:56:31.530Z,91.20
2024-03-05T02:58:58.465Z,86.22
2024-03-05T03:01:25.716Z,87.95
2024-03-05T03:03:52.744Z,93.65
2024-03-05T03:06:20.383Z,88.78
2024-03-05T03:08:47.336Z,88.57
2024-03-05T03:11:18.699Z,101.60
2024-03-05T03:13:49.695Z,87.18
2024-03-05T03:16:16.836Z,84.53
2024-03-05T03:18:43.900Z,90.75
2024-03-05T03:21:11.024Z,89.43
2024-03-05T03:23:37.967Z,90.20
2024-03-05T03:26:06.058Z,82.72
2024-03-05T03:28:34.045Z,95.00
2024-03-05T03:31:01.713Z,84.65
2024-03-05T03:33:28.715Z,92.70
2024-03-05T03:35:56.996Z,87.85
2024-03-05T03:38:24.925Z,90.15
2024-03-05T03:40:54.059Z,86.43
2024-03-05T03:43:21.315Z,83.45
2024-03-05T03:45:49.248Z,78.15
2024-03-05T03:48:16.506Z,80.40
2024-03-05T03:50:45.207Z,85.25
2024-03-05T03:53:14.411Z,82.43
2024-03-05T03:55:41.524Z,89.60
2024-03-05T03:58:08.488Z,80.95
2024-03-05T04:00:37.926Z,89.57
2024-03-05T04:03:07.383Z,81.47
2024-03-05T04:05:34.849Z,80.45
2024-03-05T04:08:05.563Z,80.20
2024-03-05T04:10:32.934Z,80.95
2024-03-05T04:13:00.011Z,85.03
2024-03-05T04:15:26.922Z,82.68
2024-03-05T04:17:54.005Z,75.90
2024-03-05T04:20:21.494Z,82.03
2024-03-05T04:22:48.752Z,77.20
2024-03-05T04:25:15.978Z,78.78
2024-03-05T04:27:47.161Z,78.57
2024-03-05T04:30:15.775Z,78.75
2024-03-05T04:32:58.462Z,78.85
2024-03-05T04:37:57.374Z,79.28
2024-03-05T04:40:24.687Z,78.10
2024-03-05T04:42:51.878Z,80.32
2024-03-05T04:45:19.287Z,83.72
2024-03-05T04:47:46.540Z,83.20
2024-03-05T04:50:15.815Z,75.80
2024-03-05T04:52:44.018Z,79.55
2024-03-05T04:55:11.544Z,75.80
2024-03-05T04:57:38.591Z,76.30
2024-03-05T05:00:21.017Z,75.35
2024-03-05T05:02:49.215Z,78.28
2024-03-05T05:05:19.737Z,74.38
2024-03-05T05:07:47.944Z,74.40
2024-03-05T05:10:15.822Z,72.68
2024-03-05T05:12:45.069Z,81.03
2024-03-05T05:15:13.359Z,83.35
2024-03-05T05:17:40.734Z,78.68
2024-03-05T05:20:11.945Z,72.45
2024-03-05T05:22:39.301Z,76.25
2024-03-05T05:25:09.517Z,76.57
2024-03-05T05:27:36.994Z,79.40
2024-03-05T05:30:09.627Z,83.78
2024-03-05T05:32:41.180Z,84.97
2024-03-05T05:35:11.598Z,79.35
2024-03-05T05:37:38.923Z,83.72
2024-03-05T05:40:11.986Z,83.13
2024-03-05T05:42:39.637Z,90.30
2024-03-05T05:45:10.135Z,90.88
2024-03-05T05:47:59.046Z,91.35
2024-03-05T05:50:32.713Z,77.75
2024-03-05T05:53:02.806Z,83.00
2024-03-05T05:55:30.224Z,79.05
2024-03-05T05:57:58.361Z,74.38
2024-03-05T06:00:35.053Z,76.63
2024-03-05T06:03:05.601Z,67.72
2024-03-05T06:05:33.600Z,69.88
2024-03-05T06:08:01.931Z,68.38
2024-03-05T06:10:30.977Z,70.30
2024-03-05T06:12:59.780Z,66.13
2024-03-05T06:15:29.673Z,66.47
2024-03-05T06:18:01.256Z,66.05
2024-03-05T06:20:29.406Z,62.33
2024-03-05T06:23:00.477Z,62.75
2024-03-05T06:25:30.414Z,62.42
2024-03-05T06:27:57.889Z,63.55
2024-03-05T06:30:26.291Z,63.08
2024-03-05T06:32:53.870Z,59.28
2024-03-05T06:35:25.337Z,58.70
2024-03-05T06:37:54.854Z,55.72
2024-03-05T06:40:24.548Z,57.15
2024-03-05T06:43:05.488Z,55.15
2024-03-05T06:45:35.925Z,57.45
2024-03-05T06:48:16.064Z,56.92
2024-03-05T06:50:45.011Z,52.70
2024-03-05T06:53:31.593Z,55.63
2024-03-05T06:56:17.389Z,55.47
2024-03-05T06:58:47.174Z,53.97
2024-03-05T07:01:21.656Z,55.85
2024-03-05T07:03:49.783Z,55.75
2024-03-05T07:06:20.772Z,50.53
2024-03-05T07:08:49.958Z,47.25
2024-03-05T07:11:17.751Z,51.30
2024-03-05T07:13:48.828Z,48.92
2024-03-05T07:16:18.976Z,46.50
2024-03-05T07:18:51.460Z,49.33
2024-03-05T07:21:21.689Z,48.38
2024-03-05T07:23:55.052Z,50.47
2024-03-05T07:26:27.733Z,48.83
2024-03-05T07:28:55.604Z,48.30
2024-03-05T07:31:25.358Z,48.88
2024-03-05T07:33:53.851Z,46.88
2024-03-05T07:36:22.069Z,48.05
2024-03-05T07:38:49.689Z,50.83
2024-03-05T07:41:26.654Z,49.97
2024-03-05T07:44:05.124Z,48.08
2024-03-05T07:46:37.590Z,50.83
2024-03-05T07:49:06.138Z,53.25
2024-03-05T07:51:41.251Z,49.00
2024-03-05T07:54:12.533Z,49.85
2024-03-05T07:56:39.785Z,45.25
2024-03-05T07:59:07.167Z,43.33
2024-03-05T08:01:34.850Z,44.38
2024-03-05T08:04:02.360Z,44.78
2024-03-05T08:06:31.774Z,45.28
2024-03-05T08:08:58.855Z,42.88
2024-03-05T08:11:25.895Z,45.85
2024-03-05T08:13:52.927Z,40.35
2024-03-05T08:16:19.894Z,46.08
2024-03-05T08:18:47.711Z,40.40
2024-03-05T08:21:14.828Z,42.65
2024-03-05T08:23:42.032Z,42.15
2024-03-05T08:26:10.526Z,49.08
2024-03-05T08:28:56.614Z,45.47
2024-03-05T08:31:23.641Z,49.00
2024-03-05T08:33:51.154Z,43.17
2024-03-05T08:36:18.968Z,43.92
2024-03-05T08:38:46.982Z,48.85
2024-03-05T08:41:14.003Z,45.80
2024-03-05T08:43:41.716Z,49.20
2024-03-05T08:46:09.669Z,44.38
2024-03-05T08:48:37.370Z,45.28
2024-03-05T08:51:04.857Z,42.00
2024-03-05T08:53:31.971Z,41.88
2024-03-05T08:55:58.997Z,43.17
2024-03-05T08:58:26.125Z,42.53
2024-03-05T09:00:54.418Z,52.10
2024-03-05T09:03:22.536Z,40.00
2024-03-05T09:05:49.546Z,42.05
2024-03-05T09:08:16.694Z,43.38
2024-03-05T09:10:45.942Z,47.63
2024-03-05T09:13:13.235Z,43.30
2024-03-05T09:15:43.729Z,43.65
2024-03-05T09:18:15.947Z,39.03
2024-03-05T09:20:44.181Z,37.88
2024-03-05T09:23:11.624Z,40.10
2024-03-05T09:25:43.345Z,39.47
2024-03-05T09:28:11.894Z,39.20
2024-03-05T09:30:39.359Z,37.65
2024-03-05T09:33:11.536Z,41.20
2024-03-05T09:35:40.484Z,40.22
2024-03-05T09:38:08.573Z,38.17
2024-03-05T09:40:36.392Z,39.15
2024-03-05T09:43:05.751Z,39.08
2024-03-05T09:45:38.223Z,40.47
2024-03-05T09:48:08.270Z,35.75
2024-03-05T09:50:40.566Z,43.20
2024-03-05T09:53:10.239Z,41.33
2024-03-05T09:55:49.129Z,37.80
2024-03-05T09:58:19.948Z,37.88
2024-03-05T10:00:48.466Z,36.03
2024-03-05T10:03:15.530Z,37.72
2024-03-05T10:05:42.668Z,37.67
2024-03-05T10:08:12.644Z,37.55
2024-03-05T10:10:39.891Z,35.80
2024-03-05T10:13:07.755Z,33.45
2024-03-05T10:15:38.564Z,33.17
2024-03-05T10:18:08.960Z,33.90
2024-03-05T10:20:40.171Z,28.27
2024-03-05T10:23:10.738Z,29.90
2024-03-05T10:25:41.657Z,27.33
2024-03-05T10:28:12.761Z,29.08
2024-03-05T10:30:43.976Z,28.05
2024-03-05T10:33:11.819Z,29.77
2024-03-05T10:35:40.337Z,26.30
2024-03-05T10:38:15.796Z,28.50
2024-03-05T10:40:46.687Z,27.10
2024-03-05T10:43:18.047Z,28.05
2024-03-05T10:45:48.668Z,25.10
2024-03-05T10:48:19.768Z,26.23
2024-03-05T10:50:50.466Z,25.55
2024-03-05T10:53:19.030Z,24.42
2024-03-05T10:55:48.730Z,23.73
2024-03-05T10:58:19.123Z,26.52
2024-03-05T11:00:49.362Z,24.42
2024-03-05T11:03:21.547Z,23.15
2024-03-05T11:05:53.695Z,23.20
2024-03-05T11:08:26.023Z,23.42
2024-03-05T11:11:07.510Z,25.00
2024-03-05T11:13:40.046Z,24.83
2024-03-05T11:16:14.508Z,23.85
2024-03-05T11:19:00.002Z,26.33
2024-03-05T11:21:26.978Z,27.27
2024-03-05T11:23:54.160Z,28.83
2024-03-05T11:26:24.325Z,26.63
2024-03-05T11:29:03.769Z,28.52
2024-03-05T11:31:31.143Z,28.13
2024-03-05T11:34:04.273Z,30.73
2024-03-05T11:36:35.866Z,31.17
2024-03-05T11:39:08.909Z,32.70
2024-03-05T11:41:39.426Z,32.42
2024-03-05T11:44:06.766Z,29.60
2024-03-05T11:46:46.892Z,31.13
2024-03-05T11:49:17.650Z,31.25
2024-03-05T11:51:47.224Z,30.42
2024-03-05T11:54:18.781Z,29.67
2024-03-05T11:56:56.155Z,28.90
2024-03-05T11:59:38.955Z,30.73
2024-03-05T12:02:16.193Z,28.20
2024-03-05T12:04:50.029Z,26.90
2024-03-05T12:07:17.765Z,28.05
2024-03-05T12:09:45.286Z,27.27
2024-03-05T12:12:14.179Z,29.63
2024-03-05T12:14:57.202Z,26.30
2024-03-05T12:17:26.209Z,24.45
2024-03-05T12:20:04.935Z,25.77
2024-03-05T12:22:33.136Z,24.98
2024-03-05T12:25:02.092Z,25.30
2024-03-05T12:27:29.637Z,24.48
2024-03-05T12:30:02.741Z,26.33
2024-03-05T12:32:30.333Z,23.92
2024-03-05T12:35:03.220Z,24.13
2024-03-05T12:37:32.872Z,24.80
2024-03-05T12:40:00.988Z,23.05
2024-03-05T12:42:29.866Z,26.88
2024-03-05T12:45:09.990Z,25.15
2024-03-05T12:47:39.909Z,24.00
2024-03-05T12:50:11.463Z,23.50
2024-03-05T12:52:39.186Z,25.48
2024-03-05T12:55:11.721Z,26.42
2024-03-05T12:57:39.100Z,25.88
2024-03-05T13:00:14.129Z,25.77
2024-03-05T13:02:43.431Z,22.48
2024-03-05T13:05:11.281Z,23.77
2024-03-05T13:07:39.720Z,24.95
2024-03-05T13:10:13.443Z,22.30
2024-03-05T13:12:43.221Z,23.63
2024-03-05T13:15:10.793Z,21.88
2024-03-05T13:17:38.006Z,21.15
2024-03-05T13:20:05.883Z,20.80
2024-03-05T13:22:33.268Z,22.77
2024-03-05T13:25:01.083Z,19.42
2024-03-05T13:27:28.181Z,21.10
2024-03-05T13:30:05.561Z,21.55
2024-03-05T13:32:39.779Z,21.42
2024-03-05T13:35:09.280Z,19.02
2024-03-05T13:37:39.354Z,20.17
2024-03-05T13:40:07.821Z,18.63
2024-03-05T13:42:37.051Z,18.50
2024-03-05T13:45:13.392Z,17.70
2024-03-05T13:47:44.379Z,19.70
2024-03-05T13:50:14.063Z,18.80
2024-03-05T13:52:43.708Z,19.10
2024-03-05T13:55:12.928Z,19.20
2024-03-05T13:57:41.182Z,20.67
2024-03-05T14:00:10.147Z,21.65
2024-03-05T14:02:37.275Z,20.55
2024-03-05T14:05:04.828Z,20.48
2024-03-05T14:07:32.371Z,23.08
2024-03-05T14:10:00.877Z,21.67
2024-03-05T14:12:30.888Z,21.15
2024-03-05T14:15:05.229Z,23.35
2024-03-05T14:17:32.176Z,22.38
2024-03-05T14:19:59.137Z,22.42
2024-03-05T14:22:26.157Z,24.02
2024-03-05T14:24:53.936Z,23.13
2024-03-05T14:27:20.907Z,23.10
2024-03-05T14:29:47.856Z,23.63
2024-03-05T14:32:14.807Z,22.88
2024-03-05T14:34:41.779Z,26.48
2024-03-05T14:39:49.468Z,22.05
2024-03-05T14:42:18.209Z,23.52
2024-03-05T14:44:47.320Z,23.88
2024-03-05T14:47:14.467Z,23.92
2024-03-05T14:49:41.472Z,22.92
2024-03-05T14:52:08.388Z,23.55
2024-03-05T14:54:35.614Z,24.02
2024-03-05T14:57:02.552Z,25.08
2024-03-05T14:59:30.204Z,26.45
2024-03-05T15:02:00.771Z,26.92
2024-03-05T15:04:27.876Z,26.65
2024-03-05T15:06:57.366Z,25.92
2024-03-05T15:09:24.346Z,26.15
2024-03-05T15:11:51.561Z,25.48
2024-03-05T15:16:47.800Z,27.00
2024-03-05T15:19:16.215Z,25.98
2024-03-05T15:21:43.366Z,25.10
2024-03-05T15:26:58.504Z,28.48
2024-03-05T15:29:32.520Z,28.70
2024-03-05T15:32:01.330Z,28.08
2024-03-05T15:34:28.770Z,29.27
2024-03-05T15:36:56.016Z,29.35
2024-03-05T15:39:23.316Z,28.00
2024-03-05T15:41:50.297Z,29.48
2024-03-05T15:44:20.520Z,31.15
2024-03-05T15:46:48.772Z,28.85
2024-03-05T15:49:15.765Z,28.38
2024-03-05T15:51:43.737Z,28.27
2024-03-05T15:54:11.587Z,29.67
2024-03-05T15:56:58.586Z,27.42
2024-03-05T15:59:29.905Z,28.83
2024-03-05T16:01:57.023Z,30.73
2024-03-05T16:04:43.116Z,29.90
2024-03-05T16:07:11.502Z,30.27
2024-03-05T16:09:38.454Z,30.27
2024-03-05T16:12:06.065Z,28.88
2024-03-05T16:14:33.602Z,27.67
2024-03-05T16:17:01.517Z,31.25
2024-03-05T16:19:28.662Z,29.38
2024-03-05T16:21:57.933Z,28.23
2024-03-05T16:27:03.872Z,29.38
2024-03-05T16:29:30.907Z,28.55
2024-03-05T16:31:59.710Z,27.33
2024-03-05T16:34:26.970Z,27.52
2024-03-05T16:50:14.002Z,29.08
2024-03-05T16:52:44.921Z,28.70
2024-03-05T16:55:16.142Z,27.33
2024-03-05T16:57:44.531Z,27.20
2024-03-05T17:00:19.681Z,28.05
2024-03-05T17:02:56.918Z,29.85
2024-03-05T17:05:25.170Z,29.92
2024-03-05T17:07:56.087Z,31.38
2024-03-05T17:10:28.151Z,30.08
2024-03-05T17:12:56.982Z,33.42
2024-03-05T17:15:42.332Z,29.75
2024-03-05T17:18:12.266Z,31.85
2024-03-05T17:20:39.722Z,32.15
2024-03-05T17:23:08.957Z,32.90
2024-03-05T17:25:39.868Z,32.15
2024-03-05T17:28:09.925Z,28.88
2024-03-05T17:30:39.262Z,27.80
2024-03-05T17:33:15.339Z,28.50
2024-03-05T17:35:43.168Z,27.67
2024-03-05T17:38:15.922Z,28.48
2024-03-05T17:40:44.146Z,26.05
2024-03-05T17:43:11.383Z,26.75
2024-03-05T17:45:38.410Z,26.35
2024-03-05T17:48:07.084Z,26.55
2024-03-05T17:53:07.114Z,25.77
2024-03-05T17:55:35.969Z,24.98
2024-03-05T17:58:05.781Z,26.60
2024-03-05T18:00:46.379Z,26.55
2024-03-05T18:03:22.798Z,24.80
2024-03-05T18:05:49.955Z,24.90
2024-03-05T18:08:17.108Z,25.52
2024-03-05T18:10:44.275Z,24.75
2024-03-05T18:13:11.645Z,25.35
2024-03-05T18:15:42.100Z,23.98
2024-03-05T18:18:09.074Z,23.33
2024-03-05T18:20:36.845Z,25.10
2024-03-05T18:23:06.338Z,23.20
2024-03-05T18:25:37.692Z,21.55
2024-03-05T18:28:06.577Z,19.33
2024-03-05T18:30:39.262Z,19.65
2024-03-05T18:33:10.027Z,21.45
2024-03-05T18:35:40.694Z,19.55
2024-03-05T18:38:20.461Z,21.75
2024-03-05T18:40:58.092Z,19.23
2024-03-05T18:43:26.101Z,18.65
2024-03-05T18:45:53.474Z,20.17
2024-03-05T18:48:24.053Z,19.42
2024-03-05T18:50:52.701Z,18.65
2024-03-05T18:55:59.320Z,18.58
2024-03-05T18:58:26.320Z,19.85
2024-03-05T19:00:54.184Z,20.63
2024-03-05T19:03:21.320Z,20.00
2024-03-05T19:05:49.034Z,18.80
2024-03-05T19:08:20.396Z,19.33
2024-03-05T19:10:47.597Z,20.42
2024-03-05T19:13:14.618Z,19.88
2024-03-05T19:15:41.653Z,17.65
2024-03-05T19:18:09.602Z,19.23
2024-03-05T19:20:36.878Z,17.80
2024-03-05T19:23:05.616Z,18.38
2024-03-05T19:25:32.920Z,18.52
2024-03-05T19:30:42.338Z,16.02
2024-03-05T19:33:09.696Z,16.52
2024-03-05T19:35:38.704Z,15.00
2024-03-05T19:38:06.384Z,17.52
2024-03-05T19:40:33.543Z,17.75
2024-03-05T19:45:30.593Z,15.65
2024-03-05T19:47:58.932Z,14.35
2024-03-05T19:50:27.464Z,14.65
2024-03-05T19:52:56.432Z,14.68
2024-03-05T19:58:03.748Z,15.68
2024-03-05T20:00:31.099Z,16.52
2024-03-05T20:02:58.223Z,15.57
2024-03-05T20:05:28.172Z,15.63
2024-03-05T20:07:55.245Z,16.02
2024-03-05T20:10:22.649Z,18.38
2024-03-05T20:12:49.791Z,17.58
2024-03-05T20:15:16.790Z,17.00
2024-03-05T20:17:44.520Z,17.77
2024-03-05T20:20:17.247Z,17.08
2024-03-05T20:22:49.100Z,18.33
2024-03-05T20:25:22.612Z,17.77
2024-03-05T20:30:19.525Z,18.67
2024-03-05T20:32:46.904Z,19.02
2024-03-05T20:35:19.692Z,17.95
2024-03-05T20:37:47.971Z,19.55
2024-03-05T20:40:15.753Z,18.15
2024-03-05T20:42:44.212Z,18.23
2024-03-05T20:45:13.076Z,17.80
2024-03-05T20:47:41.274Z,17.35
2024-03-05T20:50:12.975Z,16.52
2024-03-05T20:52:40.420Z,17.27
2024-03-05T20:55:09.931Z,17.30
2024-03-05T20:57:38.783Z,20.52
2024-03-05T21:00:07.882Z,18.02
2024-03-05T21:02:38.068Z,17.80
2024-03-05T21:05:07.145Z,18.00
2024-03-05T21:07:36.247Z,17.45
2024-03-05T21:10:10.661Z,19.42
2024-03-05T21:12:42.240Z,18.20
2024-03-05T21:15:13.752Z,18.00
2024-03-05T21:17:42.133Z,18.50
2024-03-05T21:20:16.953Z,20.30
2024-03-05T21:22:44.563Z,21.83
2024-03-05T21:25:11.803Z,23.35
2024-03-05T21:27:43.387Z,21.50
2024-03-05T21:30:12.977Z,24.20
2024-03-05T21:32:42.995Z,22.25
2024-03-05T21:35:10.743Z,23.52
2024-03-05T21:37:39.426Z,24.27
2024-03-05T21:40:07.586Z,20.70
2024-03-05T21:42:34.726Z,21.13
2024-03-05T21:45:02.010Z,19.73
2024-03-05T21:47:29.367Z,16.83
2024-03-05T21:52:24.322Z,15.00
2024-03-05T21:54:51.211Z,13.38
2024-03-05T21:57:18.262Z,11.98
2024-03-05T21:59:45.183Z,11.50
2024-03-05T22:04:51.104Z,11.48
2024-03-05T22:07:18.194Z,12.43
2024-03-05T22:09:45.084Z,11.77
2024-03-05T22:12:12.132Z,10.32
2024-03-05T22:14:39.276Z,10.50
2024-03-05T22:17:10.081Z,10.77
2024-03-05T22:19:37.694Z,12.35
2024-03-05T22:22:04.689Z,12.02
2024-03-05T22:27:14.855Z,11.07
2024-03-05T22:29:41.932Z,11.75
2024-03-05T22:32:09.270Z,9.55
2024-03-05T22:34:37.428Z,11.40
2024-03-05T22:37:04.511Z,11.07
2024-03-05T22:39:31.491Z,9.40
2024-03-05T22:42:02.481Z,10.73
2024-03-05T22:44:29.460Z,11.30
2024-03-05T22:46:59.403Z,10.07
2024-03-05T22:49:26.419Z,11.70
2024-03-05T22:51:53.351Z,10.60
2024-03-05T22:54:20.371Z,9.57
2024-03-05T22:56:51.745Z,10.05
2024-03-05T22:59:20.183Z,9.45
2024-03-05T23:01:47.951Z,9.98
2024-03-05T23:06:41.957Z,9.98
2024-03-05T23:09:08.989Z,9.40
2024-03-05T23:11:36.025Z,9.85
2024-03-05T23:14:03.691Z,10.18
2024-03-05T23:16:30.664Z,11.80
2024-03-05T23:18:57.680Z,9.00
2024-03-05T23:21:24.721Z,9.65
2024-03-05T23:23:53.473Z,10.48
2024-03-05T23:26:20.635Z,9.70
2024-03-05T23:28:47.678Z,12.82
2024-03-05T23:31:15.310Z,11.18
2024-03-05T23:33:42.655Z,10.38
2024-03-05T23:36:09.683Z,9.82
2024-03-05T23:38:36.653Z,9.88
2024-03-05T23:41:03.871Z,10.38
2024-03-05T23:43:30.966Z,10.63
2024-03-05T23:45:57.897Z,9.45
2024-03-05T23:48:24.948Z,9.07
2024-03-05T23:50:51.926Z,10.10
2024-03-05T23:53:19.277Z,10.75
2024-03-05T23:55:46.480Z,9.65
2024-03-05T23:58:15.055Z,9.50
